sensor_id;sensor_type;location;lat;lon;timestamp;pressure;altitude;pressure_sealevel;temperature;humidity
50434;BME280;36361;38.954;-9.002;2023-04-28T00:01:20;100171.78;;;22.25;49.60
50434;BME280;36361;38.954;-9.002;2023-04-28T00:02:21;100173.91;;;22.28;49.54
50434;BME280;36361;38.954;-9.002;2023-04-28T00:03:21;100173.31;;;22.31;48.04
50434;BME280;36361;38.954;-9.002;2023-04-28T00:04:22;100174.97;;;22.32;46.93
50434;BME280;36361;38.954;-9.002;2023-04-28T00:05:22;100177.09;;;22.03;47.56
50434;BME280;36361;38.954;-9.002;2023-04-28T00:06:27;100180.66;;;22.08;47.51
50434;BME280;36361;38.954;-9.002;2023-04-28T00:07:30;100174.88;;;22.05;47.66
50434;BME280;36361;38.954;-9.002;2023-04-28T00:08:32;100177.19;;;22.30;47.06
50434;BME280;36361;38.954;-9.002;2023-04-28T00:09:32;100175.97;;;22.23;46.84
50434;BME280;36361;38.954;-9.002;2023-04-28T00:10:33;100169.06;;;22.20;47.86
50434;BME280;36361;38.954;-9.002;2023-04-28T00:11:34;100179.03;;;22.21;47.37
50434;BME280;36361;38.954;-9.002;2023-04-28T00:12:34;100186.44;;;22.26;46.38
50434;BME280;36361;38.954;-9.002;2023-04-28T00:13:36;100183.28;;;22.32;46.29
50434;BME280;36361;38.954;-9.002;2023-04-28T00:14:36;100184.63;;;22.35;46.54
50434;BME280;36361;38.954;-9.002;2023-04-28T00:15:37;100187.88;;;22.23;46.52
50434;BME280;36361;38.954;-9.002;2023-04-28T00:16:38;100187.34;;;22.21;46.71
50434;BME280;36361;38.954;-9.002;2023-04-28T00:17:38;100192.75;;;22.12;47.02
50434;BME280;36361;38.954;-9.002;2023-04-28T00:18:39;100194.81;;;22.07;47.17
50434;BME280;36361;38.954;-9.002;2023-04-28T00:19:39;100193.97;;;22.06;47.30
50434;BME280;36361;38.954;-9.002;2023-04-28T00:20:40;100190.78;;;21.80;48.16
50434;BME280;36361;38.954;-9.002;2023-04-28T00:21:40;100187.22;;;21.61;49.06
50434;BME280;36361;38.954;-9.002;2023-04-28T00:22:41;100193.97;;;21.55;49.33
50434;BME280;36361;38.954;-9.002;2023-04-28T00:23:42;100195.88;;;21.73;49.24
50434;BME280;36361;38.954;-9.002;2023-04-28T00:24:42;100188.53;;;21.82;48.67
50434;BME280;36361;38.954;-9.002;2023-04-28T00:25:50;100185.28;;;21.94;48.75
50434;BME280;36361;38.954;-9.002;2023-04-28T00:26:57;100183.34;;;21.62;49.42
50434;BME280;36361;38.954;-9.002;2023-04-28T00:27:58;100194.41;;;21.62;49.97
50434;BME280;36361;38.954;-9.002;2023-04-28T00:28:58;100179.38;;;21.49;50.75
50434;BME280;36361;38.954;-9.002;2023-04-28T00:29:59;100180.38;;;21.40;51.31
50434;BME280;36361;38.954;-9.002;2023-04-28T00:31:12;100177.72;;;21.48;51.25
50434;BME280;36361;38.954;-9.002;2023-04-28T00:32:13;100179.44;;;21.63;50.82
50434;BME280;36361;38.954;-9.002;2023-04-28T00:33:14;100177.97;;;21.52;51.21
50434;BME280;36361;38.954;-9.002;2023-04-28T00:34:15;100177.66;;;21.35;52.33
50434;BME280;36361;38.954;-9.002;2023-04-28T00:35:18;100171.78;;;21.17;52.13
50434;BME280;36361;38.954;-9.002;2023-04-28T00:36:19;100164.66;;;21.11;52.75
50434;BME280;36361;38.954;-9.002;2023-04-28T00:37:19;100162.59;;;21.03;51.81
50434;BME280;36361;38.954;-9.002;2023-04-28T00:38:20;100157.44;;;21.15;51.46
50434;BME280;36361;38.954;-9.002;2023-04-28T00:39:20;100142.94;;;21.23;51.03
50434;BME280;36361;38.954;-9.002;2023-04-28T00:40:22;100150.41;;;21.04;51.09
50434;BME280;36361;38.954;-9.002;2023-04-28T00:41:24;100147.91;;;21.02;51.42
50434;BME280;36361;38.954;-9.002;2023-04-28T00:42:24;100162.81;;;21.25;50.34
50434;BME280;36361;38.954;-9.002;2023-04-28T00:43:25;100176.81;;;21.15;50.30
50434;BME280;36361;38.954;-9.002;2023-04-28T00:44:26;100195.97;;;20.88;51.25
50434;BME280;36361;38.954;-9.002;2023-04-28T00:45:27;100200.78;;;21.01;50.50
50434;BME280;36361;38.954;-9.002;2023-04-28T00:46:29;100207.50;;;20.71;51.51
50434;BME280;36361;38.954;-9.002;2023-04-28T00:47:35;100215.97;;;20.80;50.61
50434;BME280;36361;38.954;-9.002;2023-04-28T00:48:37;100208.72;;;21.08;47.31
50434;BME280;36361;38.954;-9.002;2023-04-28T00:49:38;100212.00;;;21.10;46.92
50434;BME280;36361;38.954;-9.002;2023-04-28T00:50:39;100217.34;;;21.25;46.21
50434;BME280;36361;38.954;-9.002;2023-04-28T00:51:39;100212.00;;;21.34;45.87
50434;BME280;36361;38.954;-9.002;2023-04-28T00:52:42;100207.25;;;21.15;46.17
50434;BME280;36361;38.954;-9.002;2023-04-28T00:53:43;100213.94;;;21.09;46.33
50434;BME280;36361;38.954;-9.002;2023-04-28T00:54:43;100204.09;;;21.03;46.76
50434;BME280;36361;38.954;-9.002;2023-04-28T00:55:47;100206.63;;;21.18;46.57
50434;BME280;36361;38.954;-9.002;2023-04-28T00:56:48;100206.91;;;20.98;46.63
50434;BME280;36361;38.954;-9.002;2023-04-28T00:57:50;100194.78;;;20.94;46.80
50434;BME280;36361;38.954;-9.002;2023-04-28T00:58:51;100186.38;;;20.80;46.99
50434;BME280;36361;38.954;-9.002;2023-04-28T00:59:52;100198.22;;;20.86;47.30
50434;BME280;36361;38.954;-9.002;2023-04-28T01:01:01;100192.94;;;21.08;47.23
50434;BME280;36361;38.954;-9.002;2023-04-28T01:02:02;100188.84;;;21.24;52.20
50434;BME280;36361;38.954;-9.002;2023-04-28T01:03:03;100193.81;;;21.27;46.79
50434;BME280;36361;38.954;-9.002;2023-04-28T01:04:07;100199.19;;;21.38;50.51
50434;BME280;36361;38.954;-9.002;2023-04-28T01:05:10;100195.00;;;21.21;48.38
50434;BME280;36361;38.954;-9.002;2023-04-28T01:06:12;100189.56;;;21.35;50.28
50434;BME280;36361;38.954;-9.002;2023-04-28T01:07:14;100195.31;;;21.39;48.23
50434;BME280;36361;38.954;-9.002;2023-04-28T01:08:14;100203.34;;;21.59;51.02
50434;BME280;36361;38.954;-9.002;2023-04-28T01:09:15;100204.22;;;21.54;49.84
50434;BME280;36361;38.954;-9.002;2023-04-28T01:10:16;100191.81;;;21.33;48.99
50434;BME280;36361;38.954;-9.002;2023-04-28T01:11:17;100196.16;;;21.15;49.17
50434;BME280;36361;38.954;-9.002;2023-04-28T01:12:38;100188.72;;;21.35;48.95
50434;BME280;36361;38.954;-9.002;2023-04-28T01:13:39;100187.16;;;21.28;49.34
50434;BME280;36361;38.954;-9.002;2023-04-28T01:14:40;100175.22;;;21.09;50.39
50434;BME280;36361;38.954;-9.002;2023-04-28T01:15:41;100173.50;;;20.70;51.90
50434;BME280;36361;38.954;-9.002;2023-04-28T01:16:42;100186.44;;;20.51;53.19
50434;BME280;36361;38.954;-9.002;2023-04-28T01:17:44;100181.47;;;20.48;54.26
50434;BME280;36361;38.954;-9.002;2023-04-28T01:18:46;100167.66;;;20.48;54.52
50434;BME280;36361;38.954;-9.002;2023-04-28T01:19:54;100169.94;;;20.41;55.25
50434;BME280;36361;38.954;-9.002;2023-04-28T01:21:01;100171.06;;;20.40;55.08
50434;BME280;36361;38.954;-9.002;2023-04-28T01:22:03;100162.28;;;20.33;55.74
50434;BME280;36361;38.954;-9.002;2023-04-28T01:23:04;100167.97;;;20.17;56.55
50434;BME280;36361;38.954;-9.002;2023-04-28T01:24:05;100174.16;;;20.33;56.26
50434;BME280;36361;38.954;-9.002;2023-04-28T01:25:06;100166.09;;;20.37;56.12
50434;BME280;36361;38.954;-9.002;2023-04-28T01:26:07;100169.38;;;20.39;56.01
50434;BME280;36361;38.954;-9.002;2023-04-28T01:27:08;100163.84;;;20.44;56.15
50434;BME280;36361;38.954;-9.002;2023-04-28T01:28:11;100166.09;;;20.37;56.86
50434;BME280;36361;38.954;-9.002;2023-04-28T01:29:11;100167.91;;;20.23;57.85
50434;BME280;36361;38.954;-9.002;2023-04-28T01:30:12;100152.06;;;20.57;56.67
50434;BME280;36361;38.954;-9.002;2023-04-28T01:31:13;100156.78;;;20.81;55.99
50434;BME280;36361;38.954;-9.002;2023-04-28T01:32:13;100154.31;;;20.79;56.13
50434;BME280;36361;38.954;-9.002;2023-04-28T01:33:14;100152.72;;;20.73;56.76
50434;BME280;36361;38.954;-9.002;2023-04-28T01:34:15;100147.97;;;20.79;56.79
50434;BME280;36361;38.954;-9.002;2023-04-28T01:35:16;100153.97;;;20.86;56.77
50434;BME280;36361;38.954;-9.002;2023-04-28T01:36:16;100149.56;;;21.04;56.44
50434;BME280;36361;38.954;-9.002;2023-04-28T01:37:18;100150.00;;;21.11;55.68
50434;BME280;36361;38.954;-9.002;2023-04-28T01:38:20;100147.03;;;21.07;56.01
50434;BME280;36361;38.954;-9.002;2023-04-28T01:39:28;100151.31;;;20.76;57.55
50434;BME280;36361;38.954;-9.002;2023-04-28T01:40:30;100152.69;;;20.97;57.02
50434;BME280;36361;38.954;-9.002;2023-04-28T01:41:31;100151.13;;;20.91;57.78
50434;BME280;36361;38.954;-9.002;2023-04-28T01:42:33;100150.22;;;20.77;58.41
50434;BME280;36361;38.954;-9.002;2023-04-28T01:43:35;100142.56;;;20.68;59.07
50434;BME280;36361;38.954;-9.002;2023-04-28T01:44:36;100143.47;;;20.83;58.29
50434;BME280;36361;38.954;-9.002;2023-04-28T01:45:39;100144.69;;;20.77;58.74
50434;BME280;36361;38.954;-9.002;2023-04-28T01:46:40;100145.38;;;20.63;59.74
50434;BME280;36361;38.954;-9.002;2023-04-28T01:47:41;100140.19;;;20.57;60.49
50434;BME280;36361;38.954;-9.002;2023-04-28T01:48:41;100145.25;;;20.73;59.20
50434;BME280;36361;38.954;-9.002;2023-04-28T01:49:42;100139.50;;;20.46;60.50
50434;BME280;36361;38.954;-9.002;2023-04-28T01:50:42;100147.25;;;20.44;61.45
50434;BME280;36361;38.954;-9.002;2023-04-28T01:51:43;100155.03;;;20.37;62.05
50434;BME280;36361;38.954;-9.002;2023-04-28T01:52:44;100159.34;;;20.24;62.83
50434;BME280;36361;38.954;-9.002;2023-04-28T01:53:44;100165.56;;;20.35;62.26
50434;BME280;36361;38.954;-9.002;2023-04-28T01:54:46;100155.69;;;20.29;62.81
50434;BME280;36361;38.954;-9.002;2023-04-28T01:55:47;100162.69;;;20.50;62.08
50434;BME280;36361;38.954;-9.002;2023-04-28T01:56:49;100162.19;;;20.43;63.76
50434;BME280;36361;38.954;-9.002;2023-04-28T01:57:51;100154.84;;;20.57;63.67
50434;BME280;36361;38.954;-9.002;2023-04-28T01:58:52;100154.09;;;20.52;64.65
50434;BME280;36361;38.954;-9.002;2023-04-28T01:59:53;100165.31;;;20.60;64.86
50434;BME280;36361;38.954;-9.002;2023-04-28T02:00:55;100169.50;;;20.58;64.38
50434;BME280;36361;38.954;-9.002;2023-04-28T02:01:57;100160.84;;;20.64;64.58
50434;BME280;36361;38.954;-9.002;2023-04-28T02:02:57;100157.03;;;20.60;64.84
50434;BME280;36361;38.954;-9.002;2023-04-28T02:03:58;100157.38;;;20.54;65.27
50434;BME280;36361;38.954;-9.002;2023-04-28T02:04:59;100158.09;;;20.64;64.55
50434;BME280;36361;38.954;-9.002;2023-04-28T02:05:59;100166.38;;;20.64;63.51
50434;BME280;36361;38.954;-9.002;2023-04-28T02:07:00;100165.25;;;20.65;62.36
50434;BME280;36361;38.954;-9.002;2023-04-28T02:08:01;100165.25;;;20.65;62.19
50434;BME280;36361;38.954;-9.002;2023-04-28T02:09:03;100166.44;;;20.59;62.04
50434;BME280;36361;38.954;-9.002;2023-04-28T02:10:04;100167.97;;;20.70;60.69
50434;BME280;36361;38.954;-9.002;2023-04-28T02:11:05;100173.97;;;20.78;61.22
50434;BME280;36361;38.954;-9.002;2023-04-28T02:12:05;100178.38;;;20.79;62.47
50434;BME280;36361;38.954;-9.002;2023-04-28T02:13:06;100172.91;;;20.73;62.47
50434;BME280;36361;38.954;-9.002;2023-04-28T02:14:06;100173.81;;;20.69;62.87
50434;BME280;36361;38.954;-9.002;2023-04-28T02:15:08;100168.81;;;20.42;63.36
50434;BME280;36361;38.954;-9.002;2023-04-28T02:16:08;100177.75;;;20.34;64.79
50434;BME280;36361;38.954;-9.002;2023-04-28T02:17:09;100175.66;;;19.92;66.65
50434;BME280;36361;38.954;-9.002;2023-04-28T02:18:10;100175.91;;;19.61;69.22
50434;BME280;36361;38.954;-9.002;2023-04-28T02:19:14;100166.84;;;19.50;71.89
50434;BME280;36361;38.954;-9.002;2023-04-28T02:20:15;100171.63;;;19.40;72.68
50434;BME280;36361;38.954;-9.002;2023-04-28T02:21:16;100172.97;;;19.42;72.76
50434;BME280;36361;38.954;-9.002;2023-04-28T02:22:24;100169.03;;;19.53;71.44
50434;BME280;36361;38.954;-9.002;2023-04-28T02:23:25;100162.41;;;19.54;69.44
50434;BME280;36361;38.954;-9.002;2023-04-28T02:24:25;100157.66;;;19.65;68.74
50434;BME280;36361;38.954;-9.002;2023-04-28T02:25:26;100163.75;;;19.62;69.52
50434;BME280;36361;38.954;-9.002;2023-04-28T02:26:27;100153.59;;;19.52;68.95
50434;BME280;36361;38.954;-9.002;2023-04-28T02:27:28;100158.00;;;19.58;67.22
50434;BME280;36361;38.954;-9.002;2023-04-28T02:28:29;100156.88;;;19.54;67.02
50434;BME280;36361;38.954;-9.002;2023-04-28T02:29:31;100154.69;;;19.51;66.51
50434;BME280;36361;38.954;-9.002;2023-04-28T02:30:32;100151.72;;;19.43;67.94
50434;BME280;36361;38.954;-9.002;2023-04-28T02:31:32;100155.88;;;19.40;67.50
50434;BME280;36361;38.954;-9.002;2023-04-28T02:32:33;100153.44;;;19.39;66.95
50434;BME280;36361;38.954;-9.002;2023-04-28T02:33:34;100153.59;;;19.52;65.88
50434;BME280;36361;38.954;-9.002;2023-04-28T02:34:35;100158.16;;;19.72;64.02
50434;BME280;36361;38.954;-9.002;2023-04-28T02:35:36;100153.94;;;19.80;63.17
50434;BME280;36361;38.954;-9.002;2023-04-28T02:36:38;100157.63;;;19.99;60.99
50434;BME280;36361;38.954;-9.002;2023-04-28T02:37:38;100160.41;;;19.99;60.85
50434;BME280;36361;38.954;-9.002;2023-04-28T02:38:39;100152.34;;;19.74;62.88
50434;BME280;36361;38.954;-9.002;2023-04-28T02:39:41;100159.06;;;19.63;63.66
50434;BME280;36361;38.954;-9.002;2023-04-28T02:40:41;100147.47;;;19.60;64.52
50434;BME280;36361;38.954;-9.002;2023-04-28T02:41:42;100162.09;;;19.61;63.73
50434;BME280;36361;38.954;-9.002;2023-04-28T02:42:42;100163.56;;;19.48;64.98
50434;BME280;36361;38.954;-9.002;2023-04-28T02:43:44;100163.16;;;19.26;64.35
50434;BME280;36361;38.954;-9.002;2023-04-28T02:44:45;100172.56;;;19.64;62.39
50434;BME280;36361;38.954;-9.002;2023-04-28T02:45:52;100163.47;;;19.64;60.98
50434;BME280;36361;38.954;-9.002;2023-04-28T02:46:53;100163.25;;;19.89;59.75
50434;BME280;36361;38.954;-9.002;2023-04-28T02:47:57;100163.59;;;19.82;60.51
50434;BME280;36361;38.954;-9.002;2023-04-28T02:49:02;100161.28;;;19.60;62.09
50434;BME280;36361;38.954;-9.002;2023-04-28T02:50:03;100170.59;;;19.70;62.44
50434;BME280;36361;38.954;-9.002;2023-04-28T02:51:04;100159.50;;;19.36;64.17
50434;BME280;36361;38.954;-9.002;2023-04-28T02:52:06;100159.69;;;19.49;61.66
50434;BME280;36361;38.954;-9.002;2023-04-28T02:53:07;100163.22;;;19.11;61.96
50434;BME280;36361;38.954;-9.002;2023-04-28T02:54:07;100167.25;;;18.79;63.03
50434;BME280;36361;38.954;-9.002;2023-04-28T02:55:08;100163.34;;;18.90;63.75
50434;BME280;36361;38.954;-9.002;2023-04-28T02:56:09;100172.59;;;19.10;62.74
50434;BME280;36361;38.954;-9.002;2023-04-28T02:57:10;100154.00;;;18.86;63.91
50434;BME280;36361;38.954;-9.002;2023-04-28T02:58:10;100159.22;;;18.93;64.83
50434;BME280;36361;38.954;-9.002;2023-04-28T02:59:11;100156.22;;;18.84;64.59
50434;BME280;36361;38.954;-9.002;2023-04-28T03:00:12;100165.06;;;18.76;65.24
50434;BME280;36361;38.954;-9.002;2023-04-28T03:01:19;100159.47;;;18.91;64.15
50434;BME280;36361;38.954;-9.002;2023-04-28T03:02:20;100155.66;;;18.82;64.45
50434;BME280;36361;38.954;-9.002;2023-04-28T03:03:22;100162.31;;;18.71;65.28
50434;BME280;36361;38.954;-9.002;2023-04-28T03:04:22;100162.31;;;18.76;65.67
50434;BME280;36361;38.954;-9.002;2023-04-28T03:05:23;100160.09;;;18.63;68.16
50434;BME280;36361;38.954;-9.002;2023-04-28T03:06:24;100172.19;;;18.82;67.56
50434;BME280;36361;38.954;-9.002;2023-04-28T03:07:25;100173.84;;;18.83;67.87
50434;BME280;36361;38.954;-9.002;2023-04-28T03:08:26;100176.16;;;18.51;66.89
50434;BME280;36361;38.954;-9.002;2023-04-28T03:09:28;100172.88;;;18.38;68.35
50434;BME280;36361;38.954;-9.002;2023-04-28T03:10:29;100176.44;;;18.49;68.93
50434;BME280;36361;38.954;-9.002;2023-04-28T03:11:30;100170.13;;;18.33;70.31
50434;BME280;36361;38.954;-9.002;2023-04-28T03:12:30;100173.97;;;18.37;69.22
50434;BME280;36361;38.954;-9.002;2023-04-28T03:13:31;100153.84;;;18.37;66.83
50434;BME280;36361;38.954;-9.002;2023-04-28T03:14:32;100168.44;;;18.42;64.64
50434;BME280;36361;38.954;-9.002;2023-04-28T03:15:32;100166.78;;;18.46;63.47
50434;BME280;36361;38.954;-9.002;2023-04-28T03:16:34;100177.81;;;18.36;63.89
50434;BME280;36361;38.954;-9.002;2023-04-28T03:17:35;100173.97;;;18.37;64.16
50434;BME280;36361;38.954;-9.002;2023-04-28T03:18:38;100165.66;;;18.58;63.23
50434;BME280;36361;38.954;-9.002;2023-04-28T03:19:38;100179.16;;;18.69;64.00
50434;BME280;36361;38.954;-9.002;2023-04-28T03:20:39;100172.84;;;18.48;65.22
50434;BME280;36361;38.954;-9.002;2023-04-28T03:21:39;100171.78;;;18.34;65.91
50434;BME280;36361;38.954;-9.002;2023-04-28T03:22:40;100183.91;;;18.38;67.03
50434;BME280;36361;38.954;-9.002;2023-04-28T03:23:41;100186.09;;;18.26;69.01
50434;BME280;36361;38.954;-9.002;2023-04-28T03:24:42;100181.97;;;18.34;68.46
50434;BME280;36361;38.954;-9.002;2023-04-28T03:25:43;100177.28;;;18.39;66.33
50434;BME280;36361;38.954;-9.002;2023-04-28T03:26:45;100194.06;;;18.48;66.00
50434;BME280;36361;38.954;-9.002;2023-04-28T03:27:45;100189.06;;;18.55;65.62
50434;BME280;36361;38.954;-9.002;2023-04-28T03:28:46;100182.47;;;18.51;66.06
50434;BME280;36361;38.954;-9.002;2023-04-28T03:29:51;100192.69;;;18.51;66.19
50434;BME280;36361;38.954;-9.002;2023-04-28T03:30:52;100195.41;;;18.61;64.37
50434;BME280;36361;38.954;-9.002;2023-04-28T03:31:53;100191.00;;;18.70;63.39
50434;BME280;36361;38.954;-9.002;2023-04-28T03:32:53;100184.66;;;18.69;61.82
50434;BME280;36361;38.954;-9.002;2023-04-28T03:33:54;100182.47;;;18.66;60.82
50434;BME280;36361;38.954;-9.002;2023-04-28T03:34:55;100185.47;;;18.70;59.36
50434;BME280;36361;38.954;-9.002;2023-04-28T03:35:56;100181.03;;;18.74;59.56
50434;BME280;36361;38.954;-9.002;2023-04-28T03:36:56;100183.50;;;18.86;58.16
50434;BME280;36361;38.954;-9.002;2023-04-28T03:38:02;100179.41;;;18.73;58.58
50434;BME280;36361;38.954;-9.002;2023-04-28T03:39:03;100178.84;;;18.76;58.77
50434;BME280;36361;38.954;-9.002;2023-04-28T03:40:05;100184.91;;;18.73;59.08
50434;BME280;36361;38.954;-9.002;2023-04-28T03:41:21;100175.75;;;18.88;58.37
50434;BME280;36361;38.954;-9.002;2023-04-28T03:42:40;100171.69;;;18.75;59.23
50434;BME280;36361;38.954;-9.002;2023-04-28T03:43:43;100166.63;;;18.92;58.83
50434;BME280;36361;38.954;-9.002;2023-04-28T03:44:57;100164.50;;;18.64;61.14
50434;BME280;36361;38.954;-9.002;2023-04-28T03:45:58;100171.69;;;18.70;61.09
50434;BME280;36361;38.954;-9.002;2023-04-28T03:46:59;100172.75;;;18.79;58.84
50434;BME280;36361;38.954;-9.002;2023-04-28T03:48:00;100163.38;;;18.85;58.66
50434;BME280;36361;38.954;-9.002;2023-04-28T03:49:01;100177.78;;;18.46;60.11
50434;BME280;36361;38.954;-9.002;2023-04-28T03:50:02;100171.72;;;18.55;60.75
50434;BME280;36361;38.954;-9.002;2023-04-28T03:51:03;100172.19;;;18.82;58.77
50434;BME280;36361;38.954;-9.002;2023-04-28T03:52:04;100172.25;;;18.62;60.42
50434;BME280;36361;38.954;-9.002;2023-04-28T03:53:05;100169.53;;;18.57;60.12
50434;BME280;36361;38.954;-9.002;2023-04-28T03:54:07;100171.75;;;18.44;61.24
50434;BME280;36361;38.954;-9.002;2023-04-28T03:55:09;100173.94;;;18.53;60.94
50434;BME280;36361;38.954;-9.002;2023-04-28T03:56:09;100175.59;;;18.43;60.66
50434;BME280;36361;38.954;-9.002;2023-04-28T03:57:10;100172.81;;;18.59;59.69
50434;BME280;36361;38.954;-9.002;2023-04-28T03:58:11;100178.38;;;18.28;60.65
50434;BME280;36361;38.954;-9.002;2023-04-28T03:59:12;100183.63;;;18.19;61.98
50434;BME280;36361;38.954;-9.002;2023-04-28T04:00:13;100177.88;;;18.16;62.09
50434;BME280;36361;38.954;-9.002;2023-04-28T04:01:17;100174.25;;;18.26;61.84
50434;BME280;36361;38.954;-9.002;2023-04-28T04:02:18;100178.94;;;18.25;62.00
50434;BME280;36361;38.954;-9.002;2023-04-28T04:03:19;100182.75;;;18.44;61.13
50434;BME280;36361;38.954;-9.002;2023-04-28T04:04:22;100183.31;;;18.52;60.55
50434;BME280;36361;38.954;-9.002;2023-04-28T04:05:22;100188.88;;;18.31;61.67
50434;BME280;36361;38.954;-9.002;2023-04-28T04:06:23;100188.31;;;18.19;63.38
50434;BME280;36361;38.954;-9.002;2023-04-28T04:07:24;100192.72;;;18.30;62.13
50434;BME280;36361;38.954;-9.002;2023-04-28T04:08:25;100199.31;;;18.34;62.78
50434;BME280;36361;38.954;-9.002;2023-04-28T04:09:26;100199.31;;;18.34;62.78
50434;BME280;36361;38.954;-9.002;2023-04-28T04:10:27;100201.50;;;18.42;62.14
50434;BME280;36361;38.954;-9.002;2023-04-28T04:11:27;100204.25;;;18.47;62.84
50434;BME280;36361;38.954;-9.002;2023-04-28T04:12:28;100209.25;;;18.40;64.01
50434;BME280;36361;38.954;-9.002;2023-04-28T04:13:29;100203.16;;;18.28;65.26
50434;BME280;36361;38.954;-9.002;2023-04-28T04:14:30;100205.41;;;18.21;66.99
50434;BME280;36361;38.954;-9.002;2023-04-28T04:15:31;100206.50;;;18.15;68.63
50434;BME280;36361;38.954;-9.002;2023-04-28T04:16:35;100205.97;;;18.23;68.72
50434;BME280;36361;38.954;-9.002;2023-04-28T04:17:36;100203.22;;;18.13;70.34
50434;BME280;36361;38.954;-9.002;2023-04-28T04:18:38;100199.91;;;18.21;69.73
50434;BME280;36361;38.954;-9.002;2023-04-28T04:19:51;100199.63;;;18.23;69.60
50434;BME280;36361;38.954;-9.002;2023-04-28T04:20:52;100200.44;;;18.18;71.05
50434;BME280;36361;38.954;-9.002;2023-04-28T04:22:00;100184.50;;;18.05;73.17
50434;BME280;36361;38.954;-9.002;2023-04-28T04:23:03;100175.38;;;18.19;72.71
50434;BME280;36361;38.954;-9.002;2023-04-28T04:24:04;100185.84;;;18.17;72.15
50434;BME280;36361;38.954;-9.002;2023-04-28T04:25:05;100179.53;;;18.22;69.22
50434;BME280;36361;38.954;-9.002;2023-04-28T04:26:08;100174.53;;;18.39;64.47
50434;BME280;36361;38.954;-9.002;2023-04-28T04:27:14;100179.72;;;18.51;61.57
50434;BME280;36361;38.954;-9.002;2023-04-28T04:28:15;100183.78;;;18.79;58.42
50434;BME280;36361;38.954;-9.002;2023-04-28T04:29:17;100186.25;;;18.86;57.90
50434;BME280;36361;38.954;-9.002;2023-04-28T04:30:18;100178.50;;;18.93;57.05
50434;BME280;36361;38.954;-9.002;2023-04-28T04:31:18;100185.03;;;19.12;55.81
50434;BME280;36361;38.954;-9.002;2023-04-28T04:32:20;100188.25;;;19.29;55.19
50434;BME280;36361;38.954;-9.002;2023-04-28T04:33:21;100179.91;;;19.35;55.69
50434;BME280;36361;38.954;-9.002;2023-04-28T04:34:23;100181.56;;;19.36;55.36
50434;BME280;36361;38.954;-9.002;2023-04-28T04:35:23;100189.47;;;19.52;54.80
50434;BME280;36361;38.954;-9.002;2023-04-28T04:36:24;100187.78;;;19.56;54.57
50434;BME280;36361;38.954;-9.002;2023-04-28T04:37:26;100189.47;;;19.52;54.59
50434;BME280;36361;38.954;-9.002;2023-04-28T04:38:35;100198.28;;;19.54;54.88
50434;BME280;36361;38.954;-9.002;2023-04-28T04:39:46;100201.91;;;19.50;55.40
50434;BME280;36361;38.954;-9.002;2023-04-28T04:40:46;100200.22;;;19.59;55.07
50434;BME280;36361;38.954;-9.002;2023-04-28T04:41:47;100200.47;;;19.63;54.55
50434;BME280;36361;38.954;-9.002;2023-04-28T04:43:11;100206.50;;;19.65;54.45
50434;BME280;36361;38.954;-9.002;2023-04-28T04:44:18;100204.56;;;19.65;53.79
50434;BME280;36361;38.954;-9.002;2023-04-28T04:45:21;100208.50;;;19.59;54.91
50434;BME280;36361;38.954;-9.002;2023-04-28T04:46:23;100206.50;;;19.65;54.84
50434;BME280;36361;38.954;-9.002;2023-04-28T04:47:24;100201.63;;;19.51;56.48
50434;BME280;36361;38.954;-9.002;2023-04-28T04:48:24;100206.03;;;19.52;56.45
50434;BME280;36361;38.954;-9.002;2023-04-28T04:49:25;100210.28;;;19.35;57.87
50434;BME280;36361;38.954;-9.002;2023-04-28T04:50:26;100218.97;;;19.08;60.29
50434;BME280;36361;38.954;-9.002;2023-04-28T04:51:27;100207.34;;;19.11;59.93
50434;BME280;36361;38.954;-9.002;2023-04-28T04:52:28;100208.50;;;19.04;60.43
50434;BME280;36361;38.954;-9.002;2023-04-28T04:53:32;100202.50;;;18.87;60.73
50434;BME280;36361;38.954;-9.002;2023-04-28T04:54:33;100206.84;;;19.03;60.09
50434;BME280;36361;38.954;-9.002;2023-04-28T04:55:33;100206.16;;;19.27;58.52
50434;BME280;36361;38.954;-9.002;2023-04-28T04:56:34;100212.03;;;19.10;58.39
50434;BME280;36361;38.954;-9.002;2023-04-28T04:57:36;100210.50;;;18.89;60.69
50434;BME280;36361;38.954;-9.002;2023-04-28T04:59:03;100215.13;;;19.03;60.48
50434;BME280;36361;38.954;-9.002;2023-04-28T05:00:20;100200.88;;;18.81;61.24
50434;BME280;36361;38.954;-9.002;2023-04-28T05:01:21;100203.63;;;18.81;60.88
50434;BME280;36361;38.954;-9.002;2023-04-28T05:02:23;100202.03;;;18.60;60.71
50434;BME280;36361;38.954;-9.002;2023-04-28T05:03:27;100203.09;;;18.64;61.01
50434;BME280;36361;38.954;-9.002;2023-04-28T05:04:31;100211.69;;;18.57;63.01
50434;BME280;36361;38.954;-9.002;2023-04-28T05:05:32;100200.94;;;18.66;63.13
50434;BME280;36361;38.954;-9.002;2023-04-28T05:06:56;100207.00;;;18.53;64.84
50434;BME280;36361;38.954;-9.002;2023-04-28T05:07:57;100201.16;;;18.85;63.01
50434;BME280;36361;38.954;-9.002;2023-04-28T05:08:58;100199.50;;;18.79;62.71
50434;BME280;36361;38.954;-9.002;2023-04-28T05:10:00;100192.63;;;18.71;62.51
50434;BME280;36361;38.954;-9.002;2023-04-28T05:11:08;100204.94;;;18.99;60.44
50434;BME280;36361;38.954;-9.002;2023-04-28T05:12:09;100196.06;;;19.07;59.94
50434;BME280;36361;38.954;-9.002;2023-04-28T05:13:10;100201.28;;;19.14;59.79
50434;BME280;36361;38.954;-9.002;2023-04-28T05:14:12;100201.25;;;19.19;58.87
50434;BME280;36361;38.954;-9.002;2023-04-28T05:15:15;100208.41;;;19.20;57.94
50434;BME280;36361;38.954;-9.002;2023-04-28T05:16:24;100206.75;;;19.19;58.71
50434;BME280;36361;38.954;-9.002;2023-04-28T05:17:48;100213.69;;;19.16;59.62
50434;BME280;36361;38.954;-9.002;2023-04-28T05:18:49;100222.19;;;19.30;58.71
50434;BME280;36361;38.954;-9.002;2023-04-28T05:19:53;100224.88;;;19.35;56.59
50434;BME280;36361;38.954;-9.002;2023-04-28T05:20:54;100234.22;;;19.44;55.45
50434;BME280;36361;38.954;-9.002;2023-04-28T05:21:55;100229.88;;;19.33;56.05